createdAt,value
2019-01-19T00:01:18.422Z,23.80
2019-01-19T00:04:10.841Z,27.13
2019-01-19T00:06:51.455Z,32.17
2019-01-19T00:09:23.112Z,34.55
2019-01-19T00:11:57.711Z,36.85
2019-01-19T00:14:26.284Z,26.80
2019-01-19T00:17:13.030Z,33.40
2019-01-19T00:20:00.999Z,26.55
2019-01-19T00:22:59.607Z,34.80
2019-01-19T00:25:36.718Z,26.87
2019-01-19T00:28:29.468Z,28.20
2019-01-19T00:31:10.183Z,24.43
2019-01-19T00:33:50.595Z,26.87
2019-01-19T00:36:31.018Z,25.43
2019-01-19T00:39:28.212Z,24.80
2019-01-19T00:42:20.939Z,22.62
2019-01-19T00:44:58.371Z,29.07
2019-01-19T00:47:32.606Z,26.00
2019-01-19T00:50:15.978Z,26.87
2019-01-19T00:52:47.662Z,24.75
2019-01-19T00:55:34.415Z,26.60
2019-01-19T00:58:12.062Z,26.57
2019-01-19T01:01:01.484Z,28.10
2019-01-19T01:03:42.375Z,23.02
2019-01-19T01:06:49.871Z,27.32
2019-01-19T01:09:37.994Z,25.85
2019-01-19T01:12:12.570Z,24.75
2019-01-19T01:14:58.495Z,26.55
2019-01-19T01:17:30.485Z,25.43
2019-01-19T01:20:24.593Z,27.15
2019-01-19T01:22:56.277Z,25.72
2019-01-19T01:25:36.934Z,28.40
2019-01-19T01:28:08.607Z,32.73
2019-01-19T01:30:49.174Z,35.13
2019-01-19T01:33:23.341Z,28.60
2019-01-19T01:36:32.067Z,29.10
2019-01-19T01:39:15.818Z,31.25
2019-01-19T01:42:06.945Z,30.20
2019-01-19T01:44:46.902Z,34.27
2019-01-19T01:47:36.769Z,34.03
2019-01-19T01:50:11.424Z,37.13
2019-01-19T01:52:58.120Z,33.30
2019-01-19T01:55:30.032Z,36.65
2019-01-19T01:58:01.674Z,41.50
2019-01-19T02:00:44.881Z,42.17
2019-01-19T02:03:34.813Z,47.23
2019-01-19T02:06:18.219Z,41.85
2019-01-19T02:08:55.512Z,44.93
2019-01-19T02:11:32.879Z,36.13
2019-01-19T02:14:07.463Z,38.58
2019-01-19T02:16:47.856Z,40.67
2019-01-19T02:19:19.532Z,41.55
2019-01-19T02:22:14.310Z,43.73
2019-01-19T02:25:03.777Z,36.68
2019-01-19T02:27:55.915Z,35.60
2019-01-19T02:30:47.309Z,43.23
2019-01-19T02:33:41.335Z,38.00
2019-01-19T02:36:22.151Z,46.10
2019-01-19T02:39:29.756Z,39.05
2019-01-19T02:42:10.254Z,37.30
2019-01-19T02:44:47.579Z,43.75
2019-01-19T02:47:59.387Z,41.50
2019-01-19T02:50:31.131Z,39.63
2019-01-19T02:53:08.634Z,41.70
2019-01-19T02:55:46.566Z,36.93
2019-01-19T02:58:51.770Z,39.85
2019-01-19T03:01:23.460Z,44.08
2019-01-19T03:04:18.911Z,35.90
2019-01-19T03:07:07.249Z,41.05
2019-01-19T03:09:50.819Z,44.20
2019-01-19T03:12:31.519Z,36.70
2019-01-19T03:15:31.521Z,46.37
2019-01-19T03:18:22.918Z,45.73
2019-01-19T03:21:16.609Z,46.80
2019-01-19T03:24:08.738Z,40.08
2019-01-19T03:26:49.141Z,36.03
2019-01-19T03:29:50.826Z,46.15
2019-01-19T03:32:30.901Z,37.17
2019-01-19T03:35:14.521Z,41.18
2019-01-19T03:38:04.142Z,37.53
2019-01-19T03:41:08.850Z,45.15
2019-01-19T03:43:43.428Z,40.88
2019-01-19T03:46:15.133Z,37.98
2019-01-19T03:49:12.512Z,38.95
2019-01-19T03:51:46.839Z,35.45
2019-01-19T03:54:43.484Z,41.45
2019-01-19T03:57:18.026Z,33.60
2019-01-19T03:59:58.883Z,32.90
2019-01-19T04:02:57.340Z,35.83
2019-01-19T04:05:40.751Z,32.55
2019-01-19T04:08:38.054Z,30.00
2019-01-19T04:11:15.469Z,23.55
2019-01-19T04:13:56.139Z,29.37
2019-01-19T04:16:39.552Z,29.20
2019-01-19T04:19:16.818Z,26.68
2019-01-19T04:21:54.304Z,30.27
2019-01-19T04:24:25.814Z,25.02
2019-01-19T04:26:54.446Z,25.55
2019-01-19T04:29:23.105Z,21.48
2019-01-19T04:32:11.083Z,25.97
2019-01-19T04:34:39.764Z,23.77
2019-01-19T04:37:08.335Z,25.12
2019-01-19T04:39:36.906Z,28.30
2019-01-19T04:42:06.308Z,25.90
2019-01-19T04:44:34.944Z,27.67
2019-01-19T04:47:03.614Z,22.42
2019-01-19T04:49:32.190Z,22.13
2019-01-19T04:52:00.928Z,22.50
2019-01-19T04:54:29.494Z,24.90
2019-01-19T04:56:58.154Z,20.52
2019-01-19T04:59:26.726Z,23.07
2019-01-19T05:01:55.327Z,18.65
2019-01-19T05:04:23.882Z,22.80
2019-01-19T05:06:52.482Z,21.30
2019-01-19T05:09:21.046Z,19.07
2019-01-19T05:11:49.718Z,24.27
2019-01-19T05:14:18.348Z,21.25
2019-01-19T05:16:46.947Z,18.95
2019-01-19T05:19:15.521Z,19.45
2019-01-19T05:21:44.113Z,17.70
2019-01-19T05:24:12.682Z,18.23
2019-01-19T05:26:41.348Z,16.40
2019-01-19T05:29:09.970Z,17.32
2019-01-19T05:31:38.582Z,20.60
2019-01-19T05:34:07.146Z,21.48
2019-01-19T05:36:38.424Z,20.70
2019-01-19T05:39:07.389Z,23.30
2019-01-19T05:41:35.986Z,20.55
2019-01-19T05:44:04.700Z,24.52
2019-01-19T05:46:33.421Z,21.68
2019-01-19T05:49:01.993Z,22.07
2019-01-19T05:51:30.587Z,28.55
2019-01-19T05:53:59.156Z,23.40
2019-01-19T05:56:27.750Z,32.53
2019-01-19T05:58:56.307Z,28.32
2019-01-19T06:01:25.450Z,29.90
2019-01-19T06:03:54.025Z,28.47
2019-01-19T06:06:22.942Z,26.42
2019-01-19T06:08:51.661Z,26.87
2019-01-19T06:11:20.365Z,31.17
2019-01-19T06:13:48.956Z,30.08
2019-01-19T06:16:17.531Z,34.48
2019-01-19T06:18:46.665Z,28.67
2019-01-19T06:21:16.417Z,33.75
2019-01-19T06:23:45.013Z,21.73
2019-01-19T06:26:13.577Z,25.35
2019-01-19T06:28:42.237Z,23.87
2019-01-19T06:31:10.883Z,41.15
2019-01-19T06:33:39.549Z,38.83
2019-01-19T06:36:08.177Z,74.35
2019-01-19T06:38:36.765Z,35.68
2019-01-19T06:41:05.400Z,37.60
2019-01-19T06:43:33.994Z,32.05
2019-01-19T06:46:02.713Z,33.92
2019-01-19T06:48:31.300Z,38.55
2019-01-19T06:50:59.941Z,31.40
2019-01-19T06:53:28.529Z,23.87
2019-01-19T06:55:57.233Z,21.95
2019-01-19T06:58:25.850Z,24.55
2019-01-19T07:00:54.408Z,21.00
2019-01-19T07:03:23.003Z,19.52
2019-01-19T07:05:51.723Z,20.30
2019-01-19T07:08:20.441Z,28.10
2019-01-19T07:10:49.022Z,28.85
2019-01-19T07:13:17.693Z,39.00
2019-01-19T07:15:46.256Z,34.63
2019-01-19T07:18:14.959Z,29.25
2019-01-19T07:20:43.600Z,35.30
2019-01-19T07:23:12.247Z,30.10
2019-01-19T07:25:40.834Z,29.07
2019-01-19T07:28:09.392Z,33.95
2019-01-19T07:30:38.059Z,33.75
2019-01-19T07:33:06.637Z,34.98
2019-01-19T07:35:35.241Z,36.65
2019-01-19T07:38:03.886Z,49.23
2019-01-19T07:40:32.488Z,42.83
2019-01-19T07:43:01.933Z,28.83
2019-01-19T07:45:30.601Z,21.73
2019-01-19T07:47:59.341Z,25.87
2019-01-19T07:50:27.930Z,17.57
2019-01-19T07:52:56.565Z,17.70
2019-01-19T07:55:25.156Z,32.67
2019-01-19T07:57:53.973Z,27.97
2019-01-19T08:00:28.408Z,23.43
2019-01-19T08:02:57.097Z,27.10
2019-01-19T08:05:25.833Z,16.30
2019-01-19T08:07:54.531Z,18.07
2019-01-19T08:10:23.262Z,15.90
2019-01-19T08:12:53.867Z,17.27
2019-01-19T08:15:24.796Z,17.57
2019-01-19T08:17:53.491Z,12.17
2019-01-19T08:20:22.186Z,12.00
2019-01-19T08:22:54.410Z,11.40
2019-01-19T08:25:23.121Z,14.37
2019-01-19T08:27:51.884Z,12.50
2019-01-19T08:30:29.003Z,13.90
2019-01-19T08:32:57.636Z,11.37
2019-01-19T08:35:26.343Z,10.23
2019-01-19T08:38:14.342Z,18.00
2019-01-19T08:40:42.970Z,12.30
2019-01-19T08:43:13.363Z,11.63
2019-01-19T08:45:42.478Z,12.90
2019-01-19T08:48:11.496Z,10.97
2019-01-19T08:50:40.137Z,12.23
2019-01-19T08:53:08.728Z,13.13
2019-01-19T08:55:37.277Z,11.93
2019-01-19T08:58:06.125Z,14.53
2019-01-19T09:00:34.748Z,13.90
2019-01-19T09:03:03.565Z,12.83
2019-01-19T09:05:32.135Z,14.53
2019-01-19T09:08:00.705Z,10.87
2019-01-19T09:10:29.451Z,11.70
2019-01-19T09:12:58.109Z,10.67
2019-01-19T09:15:26.925Z,15.30
2019-01-19T09:17:55.515Z,13.47
2019-01-19T09:20:24.153Z,14.07
2019-01-19T09:22:57.442Z,12.27
2019-01-19T09:25:26.078Z,14.10
2019-01-19T09:27:54.771Z,10.83
2019-01-19T09:30:24.564Z,11.70
2019-01-19T09:32:53.377Z,9.80
2019-01-19T09:35:22.073Z,13.10
2019-01-19T09:37:50.715Z,9.23
2019-01-19T09:40:19.609Z,11.23
2019-01-19T09:42:48.438Z,11.00
2019-01-19T09:45:19.288Z,6.33
2019-01-19T09:47:48.018Z,11.30
2019-01-19T09:50:17.810Z,9.40
2019-01-19T09:52:46.524Z,6.53
2019-01-19T09:55:15.301Z,9.43
2019-01-19T09:57:43.988Z,7.10
2019-01-19T10:00:21.757Z,11.83
2019-01-19T10:02:50.548Z,6.73
2019-01-19T10:05:22.133Z,6.67
2019-01-19T10:07:50.822Z,10.00
2019-01-19T10:10:19.715Z,5.77
2019-01-19T10:12:48.401Z,7.67
2019-01-19T10:15:18.425Z,6.97
2019-01-19T10:17:47.109Z,9.13
2019-01-19T10:20:21.598Z,8.23
2019-01-19T10:22:50.369Z,9.93
2019-01-19T10:25:19.050Z,9.73
2019-01-19T10:27:47.746Z,6.30
2019-01-19T10:30:30.037Z,7.97
2019-01-19T10:32:58.667Z,11.00
2019-01-19T10:35:27.309Z,8.43
2019-01-19T10:37:56.796Z,9.00
2019-01-19T10:40:25.619Z,8.47
2019-01-19T10:42:54.308Z,6.60
2019-01-19T10:45:25.012Z,9.20
2019-01-19T10:47:53.703Z,7.90
2019-01-19T10:50:22.434Z,5.90
2019-01-19T10:52:51.265Z,7.20
2019-01-19T10:55:22.062Z,6.70
2019-01-19T10:57:50.867Z,8.50
2019-01-19T11:00:33.622Z,7.50
2019-01-19T11:03:02.178Z,10.57
2019-01-19T11:05:31.377Z,8.07
2019-01-19T11:08:03.867Z,5.90
2019-01-19T11:10:32.124Z,11.93
2019-01-19T11:13:01.201Z,5.20
2019-01-19T11:15:29.912Z,5.37
2019-01-19T11:17:58.758Z,5.53
2019-01-19T11:20:29.230Z,9.13
2019-01-19T11:22:58.585Z,7.23
2019-01-19T11:25:27.233Z,5.77
2019-01-19T11:27:55.925Z,11.07
2019-01-19T11:30:26.456Z,10.20
2019-01-19T11:32:55.145Z,13.70
2019-01-19T11:35:24.074Z,9.37
2019-01-19T11:37:52.763Z,8.30
2019-01-19T11:40:37.860Z,7.53
2019-01-19T11:43:07.952Z,5.47
2019-01-19T11:45:36.677Z,5.40
2019-01-19T11:48:05.465Z,5.17
2019-01-19T11:50:34.103Z,6.47
2019-01-19T11:53:02.734Z,7.73
2019-01-19T11:55:31.381Z,5.73
2019-01-19T11:58:01.876Z,5.93
2019-01-19T12:00:36.400Z,8.33
2019-01-19T12:03:05.630Z,5.40
2019-01-19T12:05:34.461Z,8.70
2019-01-19T12:08:03.264Z,7.87
2019-01-19T12:10:32.277Z,9.63
2019-01-19T12:13:00.975Z,7.03
2019-01-19T12:15:30.184Z,6.47
2019-01-19T12:17:58.881Z,5.83
2019-01-19T12:20:35.741Z,10.80
2019-01-19T12:23:04.434Z,6.83
2019-01-19T12:25:52.426Z,5.47
2019-01-19T12:28:23.784Z,7.97
2019-01-19T12:30:52.442Z,6.07
2019-01-19T12:33:21.432Z,8.27
2019-01-19T12:35:50.170Z,6.63
2019-01-19T12:38:18.861Z,8.67
2019-01-19T12:40:47.414Z,5.77
2019-01-19T12:43:17.324Z,11.70
2019-01-19T12:45:51.189Z,6.30
2019-01-19T12:48:19.764Z,7.17
2019-01-19T12:50:48.381Z,7.50
2019-01-19T12:53:16.969Z,7.37
2019-01-19T12:55:45.674Z,5.10
2019-01-19T12:58:14.324Z,5.93
2019-01-19T13:00:42.947Z,6.27
2019-01-19T13:03:11.670Z,6.23
2019-01-19T13:05:55.700Z,5.70
2019-01-19T13:08:26.791Z,5.43
2019-01-19T13:11:00.070Z,11.27
2019-01-19T13:13:29.090Z,7.73
2019-01-19T13:16:26.661Z,6.57
2019-01-19T13:19:01.134Z,8.67
2019-01-19T13:21:49.438Z,6.00
2019-01-19T13:24:21.101Z,5.03
2019-01-19T13:27:15.406Z,5.07
2019-01-19T13:30:01.962Z,8.27
2019-01-19T13:32:45.102Z,12.33
2019-01-19T13:35:37.872Z,10.07
2019-01-19T13:38:24.281Z,10.20
2019-01-19T13:40:58.584Z,9.47
2019-01-19T13:43:35.703Z,7.30
2019-01-19T13:46:10.310Z,10.73
2019-01-19T13:48:44.663Z,14.10
2019-01-19T13:51:22.178Z,10.57
2019-01-19T13:54:13.200Z,5.47
2019-01-19T13:56:50.618Z,6.37
2019-01-19T13:59:40.405Z,6.93
2019-01-19T14:02:38.574Z,6.33
2019-01-19T14:05:19.042Z,9.37
2019-01-19T14:08:08.572Z,9.23
2019-01-19T14:10:48.526Z,7.90
2019-01-19T14:13:36.991Z,7.33
2019-01-19T14:16:14.549Z,6.80
2019-01-19T14:18:46.200Z,5.63
2019-01-19T14:21:23.357Z,8.03
2019-01-19T14:24:10.142Z,6.83
2019-01-19T14:26:47.553Z,6.17
2019-01-19T14:29:34.043Z,6.97
2019-01-19T14:32:20.572Z,6.23
2019-01-19T14:35:01.182Z,7.87
2019-01-19T14:37:59.740Z,8.43
2019-01-19T14:41:08.526Z,5.43
2019-01-19T14:43:56.968Z,9.80
2019-01-19T14:46:40.489Z,6.17
2019-01-19T14:49:23.498Z,5.73
2019-01-19T14:52:01.147Z,5.53
2019-01-19T14:54:32.771Z,8.13
2019-01-19T14:57:16.271Z,6.67
2019-01-19T14:59:49.387Z,6.97
2019-01-19T15:02:51.903Z,7.60
2019-01-19T15:05:29.273Z,7.13
2019-01-19T15:08:03.590Z,5.53
2019-01-19T15:10:35.301Z,7.10
2019-01-19T15:13:15.947Z,9.50
2019-01-19T15:15:59.564Z,9.90
2019-01-19T15:18:58.897Z,8.50
2019-01-19T15:21:33.074Z,6.90
2019-01-19T15:24:04.720Z,7.43
2019-01-19T15:26:51.582Z,7.57
2019-01-19T15:29:38.841Z,9.00
2019-01-19T15:32:28.912Z,8.17
2019-01-19T15:35:09.287Z,8.03
2019-01-19T15:37:49.757Z,5.93
2019-01-19T15:40:51.194Z,7.37
2019-01-19T15:43:56.361Z,5.83
2019-01-19T15:46:47.502Z,6.40
2019-01-19T15:49:45.712Z,7.57
2019-01-19T15:52:26.180Z,7.33
2019-01-19T15:55:00.452Z,7.43
2019-01-19T15:57:41.885Z,12.73
2019-01-19T16:00:25.460Z,9.37
2019-01-19T16:02:57.287Z,8.10
2019-01-19T16:05:40.805Z,9.87
2019-01-19T16:08:24.595Z,8.67
2019-01-19T16:11:05.337Z,13.17
2019-01-19T16:13:45.676Z,9.17
2019-01-19T16:16:20.593Z,14.27
2019-01-19T16:19:09.078Z,15.27
2019-01-19T16:21:55.950Z,18.90
2019-01-19T16:24:54.130Z,19.80
2019-01-19T16:27:37.890Z,15.33
2019-01-19T16:30:18.395Z,13.83
2019-01-19T16:33:07.846Z,8.30
2019-01-19T16:35:45.342Z,13.40
2019-01-19T16:38:39.926Z,21.50
2019-01-19T16:41:17.335Z,19.50
2019-01-19T16:43:55.075Z,12.80
2019-01-19T16:46:49.441Z,10.83
2019-01-19T16:49:30.377Z,13.57
2019-01-19T16:52:22.622Z,13.20
2019-01-19T16:55:00.090Z,11.87
2019-01-19T16:57:35.034Z,11.40
2019-01-19T17:00:24.478Z,13.30
2019-01-19T17:03:18.805Z,15.40
2019-01-19T17:06:09.917Z,10.70
2019-01-19T17:08:44.119Z,21.43
2019-01-19T17:11:43.774Z,15.90
2019-01-19T17:14:21.441Z,20.50
2019-01-19T17:16:55.809Z,16.73
2019-01-19T17:20:01.927Z,20.30
2019-01-19T17:22:39.276Z,17.43
2019-01-19T17:25:47.552Z,18.63
2019-01-19T17:28:21.751Z,10.13
2019-01-19T17:31:14.036Z,10.23
2019-01-19T17:33:48.271Z,16.57
2019-01-19T17:36:28.617Z,17.10
2019-01-19T17:39:10.940Z,26.87
2019-01-19T17:42:03.214Z,25.70
2019-01-19T17:44:37.509Z,35.10
2019-01-19T17:47:36.501Z,29.97
2019-01-19T17:50:32.565Z,23.17
2019-01-19T17:53:09.883Z,21.87
2019-01-19T17:55:59.324Z,20.90
2019-01-19T17:58:33.526Z,12.37
2019-01-19T18:01:08.099Z,10.67
2019-01-19T18:04:13.167Z,16.87
2019-01-19T18:06:53.454Z,15.43
2019-01-19T18:09:34.155Z,13.57
2019-01-19T18:12:08.482Z,14.60
2019-01-19T18:15:08.826Z,13.43
2019-01-19T18:18:00.076Z,13.87
2019-01-19T18:20:52.485Z,19.77
2019-01-19T18:23:35.845Z,16.67
2019-01-19T18:26:24.911Z,17.90
2019-01-19T18:29:08.956Z,14.40
2019-01-19T18:31:55.825Z,19.93
2019-01-19T18:34:45.645Z,25.63
2019-01-19T18:37:39.051Z,27.23
2019-01-19T18:43:40.411Z,30.93
2019-01-19T18:46:18.016Z,29.77
2019-01-19T18:48:54.962Z,35.00
2019-01-19T18:51:49.263Z,31.27
2019-01-19T18:54:23.763Z,37.73
2019-01-19T18:57:28.777Z,31.97
2019-01-19T19:00:00.463Z,28.30
2019-01-19T19:02:34.749Z,26.65
2019-01-19T19:05:39.164Z,23.27
2019-01-19T19:08:13.325Z,24.00
2019-01-19T19:11:13.749Z,36.00
2019-01-19T19:13:54.516Z,38.98
2019-01-19T19:16:56.292Z,48.55
2019-01-19T19:20:05.058Z,45.03
2019-01-19T19:22:39.581Z,38.50
2019-01-19T19:25:27.726Z,35.15
2019-01-19T19:27:59.438Z,36.75
2019-01-19T19:30:34.343Z,35.88
2019-01-19T19:33:14.268Z,39.45
2019-01-19T19:36:20.190Z,32.78
2019-01-19T19:39:17.720Z,38.05
2019-01-19T19:42:35.900Z,32.83
2019-01-19T19:45:36.350Z,30.37
2019-01-19T19:48:10.669Z,31.73
2019-01-19T19:50:53.876Z,36.90
2019-01-19T19:53:22.513Z,39.23
2019-01-19T19:55:50.029Z,39.25
2019-01-19T19:58:18.600Z,40.12
2019-01-19T20:00:47.294Z,34.73
2019-01-19T20:03:15.848Z,32.03
2019-01-19T20:05:44.526Z,33.48
2019-01-19T20:08:13.228Z,33.83
2019-01-19T20:10:41.823Z,33.48
2019-01-19T20:13:10.537Z,27.82
2019-01-19T20:15:39.137Z,40.10
2019-01-19T20:18:07.776Z,32.13
2019-01-19T20:20:36.442Z,36.65
2019-01-19T20:23:05.077Z,32.65
2019-01-19T20:25:33.682Z,29.10
2019-01-19T20:28:02.394Z,35.15
2019-01-19T20:30:31.067Z,28.60
2019-01-19T20:32:59.630Z,30.32
2019-01-19T20:35:28.232Z,39.75
2019-01-19T20:37:56.801Z,63.87
2019-01-19T20:40:25.454Z,86.30
2019-01-19T20:42:54.138Z,60.17
2019-01-19T20:45:22.781Z,58.20
2019-01-19T20:47:51.379Z,36.48
2019-01-19T20:50:19.954Z,30.08
2019-01-19T20:52:48.612Z,26.95
2019-01-19T20:55:17.186Z,21.17
2019-01-19T20:57:45.848Z,25.50
2019-01-19T21:00:20.653Z,26.25
2019-01-19T21:02:49.322Z,26.25
2019-01-19T21:05:17.955Z,24.77
2019-01-19T21:07:46.558Z,25.15
2019-01-19T21:10:15.207Z,19.00
2019-01-19T21:12:43.805Z,26.25
2019-01-19T21:15:15.406Z,29.27
2019-01-19T21:17:44.165Z,23.30
2019-01-19T21:20:15.462Z,20.32
2019-01-19T21:22:44.109Z,19.65
2019-01-19T21:25:13.617Z,23.57
2019-01-19T21:27:42.279Z,20.60
2019-01-19T21:30:16.195Z,24.55
2019-01-19T21:32:44.972Z,26.50
2019-01-19T21:35:13.955Z,27.35
2019-01-19T21:37:42.593Z,25.52
2019-01-19T21:40:13.218Z,28.67
2019-01-19T21:42:41.898Z,21.68
2019-01-19T21:45:13.631Z,29.42
2019-01-19T21:47:42.264Z,29.55
2019-01-19T21:50:12.374Z,29.57
2019-01-19T21:52:41.111Z,33.83
2019-01-19T21:55:10.357Z,33.00
2019-01-19T21:57:39.065Z,34.30
2019-01-19T22:00:10.955Z,30.90
2019-01-19T22:02:39.602Z,32.65
2019-01-19T22:05:08.625Z,34.00
2019-01-19T22:07:37.333Z,34.98
2019-01-19T22:10:14.795Z,34.05
2019-01-19T22:12:43.493Z,34.58
2019-01-19T22:15:17.553Z,41.63
2019-01-19T22:17:46.167Z,34.08
2019-01-19T22:20:16.957Z,35.03
2019-01-19T22:22:45.611Z,32.83
2019-01-19T22:25:14.533Z,30.82
2019-01-19T22:27:44.809Z,29.57
2019-01-19T22:30:19.014Z,27.82
2019-01-19T22:32:48.985Z,26.30
2019-01-19T22:35:17.644Z,26.05
2019-01-19T22:37:46.280Z,30.32
2019-01-19T22:40:18.032Z,26.55
2019-01-19T22:42:52.306Z,26.45
2019-01-19T22:45:21.121Z,29.10
2019-01-19T22:47:49.644Z,29.12
2019-01-19T22:50:19.168Z,31.48
2019-01-19T22:52:47.798Z,30.77
2019-01-19T22:55:16.528Z,26.97
2019-01-19T22:57:45.247Z,30.92
2019-01-19T23:00:53.417Z,31.30
2019-01-19T23:03:21.972Z,27.55
2019-01-19T23:05:50.603Z,28.80
2019-01-19T23:08:19.211Z,31.37
2019-01-19T23:10:47.880Z,30.68
2019-01-19T23:13:16.510Z,32.60
2019-01-19T23:15:45.167Z,32.90
2019-01-19T23:18:13.728Z,34.05
2019-01-19T23:20:42.393Z,33.25
2019-01-19T23:23:10.966Z,32.60
2019-01-19T23:25:39.629Z,33.05
2019-01-19T23:28:08.201Z,35.98
2019-01-19T23:30:36.950Z,36.25
2019-01-19T23:33:05.666Z,28.23
2019-01-19T23:35:41.577Z,28.67
2019-01-19T23:38:10.218Z,37.00
2019-01-19T23:40:38.886Z,29.82
2019-01-19T23:43:07.693Z,30.90
2019-01-19T23:45:36.281Z,31.30
2019-01-19T23:48:05.514Z,26.55
2019-01-19T23:50:34.121Z,29.40
2019-01-19T23:53:02.696Z,25.05
2019-01-19T23:55:31.337Z,24.85
2019-01-19T23:57:59.997Z,25.23
